F/V Vag A Lamm — FJ5011 — position and weather

sailwx.info

Track history (hours):
 
Tides and Currents Weather Stations Pressure Air Temp Water Temp Dewpoint Dewpoint Depression Visibility Wind Speed Wind Dir Waves Ship Positions

F/V Vag A Lamm

Last reported at 2018-May-17 22:54 UTC. Time now 2018-May-20 17:55 UTC.
Position N 47°50' W 003°58'.

Length 15 m.

Type: Fishing. MMSI: 228208700.

Date/timePositionNaut miles runAvg speedWind from/ knotsBaromVisibWave heightAir tempDewpointWater temp
2018-May-17 22:54N 47°50' W 003°58'0 0.6
2018-May-17 22:29N 47°50' W 003°58'2 4.6
2018-May-17 21:58N 47°49' W 003°55'3 6.0
2018-May-17 21:29N 47°47' W 003°53'2 2.2
2018-May-17 20:44N 47°48' W 003°55'1 1.6
2018-May-17 19:53N 47°47' W 003°53'1 0.7
2018-May-17 18:58N 47°46' W 003°53'1 1.2
2018-May-17 18:17N 47°47' W 003°54'0 0.8
2018-May-17 18:00N 47°47' W 003°53'4 4.9
2018-May-17 17:12N 47°50' W 003°57'2 0.1
2018-May-17 03:53N 47°49' W 003°55'1 0.8
2018-May-17 02:58N 47°48' W 003°54'1 1.0
2018-May-17 01:53N 47°49' W 003°55'0 0.3
2018-May-17 01:30N 47°49' W 003°55'1 1.7
2018-May-17 00:58N 47°48' W 003°55'11 9.7
2018-May-16 23:50N 47°42' W 003°42'3 9.3
2018-May-16 23:30N 47°40' W 003°38'5 9.4
2018-May-16 23:00N 47°37' W 003°32'5 9.7
2018-May-16 22:30N 47°34' W 003°27'5 9.8
2018-May-16 22:00N 47°31' W 003°21'5 9.7
2018-May-16 21:30N 47°29' W 003°15'510.0
2018-May-16 21:00N 47°25' W 003°09'5 8.9
2018-May-16 20:30N 47°22' W 003°04'1 1.8
2018-May-16 20:00N 47°22' W 003°05'2 4.0
2018-May-16 19:30N 47°22' W 003°07'4 8.5
2018-May-16 19:00N 47°26' W 003°09'4 8.6
2018-May-16 18:30N 47°30' W 003°10'4 8.8
2018-May-16 18:00N 47°35' W 003°13'4 8.3
2018-May-16 17:30N 47°37' W 003°17'4 8.6
2018-May-16 17:00N 47°39' W 003°23'5 9.0
2018-May-16 16:30N 47°42' W 003°29'4 8.7
2018-May-16 16:00N 47°44' W 003°35'4 8.7
2018-May-16 15:30N 47°45' W 003°41'12 0.7
2018-May-15 22:49N 47°51' W 003°56'2 4.4
2018-May-15 22:23N 47°49' W 003°55'9 6.6
2018-May-15 21:02N 47°43' W 003°46'1 9.8
2018-May-15 20:56N 47°43' W 003°44'4 9.5
2018-May-15 20:30N 47°44' W 003°38'4 8.2
2018-May-15 20:00N 47°44' W 003°32'1 1.2
2018-May-15 19:30N 47°45' W 003°33'1 1.6
2018-May-15 19:00N 47°45' W 003°33'4 8.4
2018-May-15 18:30N 47°45' W 003°40'5 8.3
2018-May-15 17:53N 47°46' W 003°47'8 7.7
2018-May-15 16:53N 47°51' W 003°56'0 0.0
2018-May-14 21:58N 47°51' W 003°56'3 4.8
2018-May-14 21:25N 47°49' W 003°56'3 5.7
2018-May-14 20:58N 47°51' W 003°56'3 3.4
2018-May-14 19:58N 47°48' W 003°55'3 3.4
2018-May-14 18:58N 47°46' W 003°51'1 1.3
2018-May-14 18:26N 47°46' W 003°51'0 0.7
2018-May-14 17:59N 47°46' W 003°52'1 0.0
2018-May-13 18:08N 47°46' W 003°51'0 0.1
2018-May-13 17:58N 47°46' W 003°51'  
2018-May-11 00:22N 47°52' W 003°55'3 7.9
2018-May-10 23:58N 47°49' W 003°54'0 0.6
2018-May-10 23:30N 47°49' W 003°54'0 0.3
2018-May-10 23:00N 47°49' W 003°54'1 1.5
2018-May-10 22:28N 47°48' W 003°54'1 2.0
2018-May-10 22:00N 47°49' W 003°54'0 0.5
2018-May-10 21:30N 47°48' W 003°54'5 7.3
2018-May-10 20:54N 47°46' W 003°49'1 1.8
2018-May-10 20:23N 47°46' W 003°47'0 0.2
2018-May-10 20:00N 47°46' W 003°47'0 0.2
2018-May-10 19:30N 47°46' W 003°47'1 1.5
2018-May-10 19:00N 47°46' W 003°48'1 1.3
2018-May-10 18:30N 47°46' W 003°47'1 2.9
2018-May-10 18:00N 47°46' W 003°50'6 0.2
2018-May-08 23:58N 47°51' W 003°56'6 7.9
2018-May-08 23:13N 47°46' W 003°50'2 8.8
2018-May-08 23:00N 47°46' W 003°48'5 6.2
2018-May-08 22:16N 47°47' W 003°54'2 5.8
2018-May-08 21:53N 47°50' W 003°55'3 5.1
2018-May-08 21:17N 47°47' W 003°52'0 0.9
2018-May-08 20:58N 47°47' W 003°52'1 1.0
2018-May-08 19:58N 47°47' W 003°54'2 1.4
2018-May-08 18:48N 47°46' W 003°52'0 0.4
2018-May-08 18:30N 47°46' W 003°52'1 1.3
2018-May-08 17:58N 47°47' W 003°52'  
Track history (hours):
 
Tides and Currents Weather Stations Pressure Air Temp Water Temp Dewpoint Dewpoint Depression Visibility Wind Speed Wind Dir Waves Ship Positions

F/V Vag A Lamm

Last reported at 2018-May-17 22:54 UTC. Time now 2018-May-20 17:55 UTC.
Position N 47°50' W 003°58'.

Length 15 m.

Type: Fishing. MMSI: 228208700.

Date/timePositionNaut miles runAvg speedWind from/ knotsBaromVisibWave heightAir tempDewpointWater temp
2018-May-17 22:54N 47°50' W 003°58'0 0.6
2018-May-17 22:29N 47°50' W 003°58'2 4.6
2018-May-17 21:58N 47°49' W 003°55'3 6.0
2018-May-17 21:29N 47°47' W 003°53'2 2.2
2018-May-17 20:44N 47°48' W 003°55'1 1.6
2018-May-17 19:53N 47°47' W 003°53'1 0.7
2018-May-17 18:58N 47°46' W 003°53'1 1.2
2018-May-17 18:17N 47°47' W 003°54'0 0.8
2018-May-17 18:00N 47°47' W 003°53'4 4.9
2018-May-17 17:12N 47°50' W 003°57'2 0.1
2018-May-17 03:53N 47°49' W 003°55'1 0.8
2018-May-17 02:58N 47°48' W 003°54'1 1.0
2018-May-17 01:53N 47°49' W 003°55'0 0.3
2018-May-17 01:30N 47°49' W 003°55'1 1.7
2018-May-17 00:58N 47°48' W 003°55'11 9.7
2018-May-16 23:50N 47°42' W 003°42'3 9.3
2018-May-16 23:30N 47°40' W 003°38'5 9.4
2018-May-16 23:00N 47°37' W 003°32'5 9.7
2018-May-16 22:30N 47°34' W 003°27'5 9.8
2018-May-16 22:00N 47°31' W 003°21'5 9.7
2018-May-16 21:30N 47°29' W 003°15'510.0
2018-May-16 21:00N 47°25' W 003°09'5 8.9
2018-May-16 20:30N 47°22' W 003°04'1 1.8
2018-May-16 20:00N 47°22' W 003°05'2 4.0
2018-May-16 19:30N 47°22' W 003°07'4 8.5
2018-May-16 19:00N 47°26' W 003°09'4 8.6
2018-May-16 18:30N 47°30' W 003°10'4 8.8
2018-May-16 18:00N 47°35' W 003°13'4 8.3
2018-May-16 17:30N 47°37' W 003°17'4 8.6
2018-May-16 17:00N 47°39' W 003°23'5 9.0
2018-May-16 16:30N 47°42' W 003°29'4 8.7
2018-May-16 16:00N 47°44' W 003°35'4 8.7
2018-May-16 15:30N 47°45' W 003°41'12 0.7
2018-May-15 22:49N 47°51' W 003°56'2 4.4
2018-May-15 22:23N 47°49' W 003°55'9 6.6
2018-May-15 21:02N 47°43' W 003°46'1 9.8
2018-May-15 20:56N 47°43' W 003°44'4 9.5
2018-May-15 20:30N 47°44' W 003°38'4 8.2
2018-May-15 20:00N 47°44' W 003°32'1 1.2
2018-May-15 19:30N 47°45' W 003°33'1 1.6
2018-May-15 19:00N 47°45' W 003°33'4 8.4
2018-May-15 18:30N 47°45' W 003°40'5 8.3
2018-May-15 17:53N 47°46' W 003°47'8 7.7
2018-May-15 16:53N 47°51' W 003°56'0 0.0
2018-May-14 21:58N 47°51' W 003°56'3 4.8
2018-May-14 21:25N 47°49' W 003°56'3 5.7
2018-May-14 20:58N 47°51' W 003°56'3 3.4
2018-May-14 19:58N 47°48' W 003°55'3 3.4
2018-May-14 18:58N 47°46' W 003°51'1 1.3
2018-May-14 18:26N 47°46' W 003°51'0 0.7
2018-May-14 17:59N 47°46' W 003°52'1 0.0
2018-May-13 18:08N 47°46' W 003°51'0 0.1
2018-May-13 17:58N 47°46' W 003°51'  
2018-May-11 00:22N 47°52' W 003°55'3 7.9
2018-May-10 23:58N 47°49' W 003°54'0 0.6
2018-May-10 23:30N 47°49' W 003°54'0 0.3
2018-May-10 23:00N 47°49' W 003°54'1 1.5
2018-May-10 22:28N 47°48' W 003°54'1 2.0
2018-May-10 22:00N 47°49' W 003°54'0 0.5
2018-May-10 21:30N 47°48' W 003°54'5 7.3
2018-May-10 20:54N 47°46' W 003°49'1 1.8
2018-May-10 20:23N 47°46' W 003°47'0 0.2
2018-May-10 20:00N 47°46' W 003°47'0 0.2
2018-May-10 19:30N 47°46' W 003°47'1 1.5
2018-May-10 19:00N 47°46' W 003°48'1 1.3
2018-May-10 18:30N 47°46' W 003°47'1 2.9
2018-May-10 18:00N 47°46' W 003°50'6 0.2
2018-May-08 23:58N 47°51' W 003°56'6 7.9
2018-May-08 23:13N 47°46' W 003°50'2 8.8
2018-May-08 23:00N 47°46' W 003°48'5 6.2
2018-May-08 22:16N 47°47' W 003°54'2 5.8
2018-May-08 21:53N 47°50' W 003°55'3 5.1
2018-May-08 21:17N 47°47' W 003°52'0 0.9
2018-May-08 20:58N 47°47' W 003°52'1 1.0
2018-May-08 19:58N 47°47' W 003°54'2 1.4
2018-May-08 18:48N 47°46' W 003°52'0 0.4
2018-May-08 18:30N 47°46' W 003°52'1 1.3
2018-May-08 17:58N 47°47' W 003°52'  

Dump ship's entire track history